Terminal Aerodrome Forecast
Issued by NWS

Home | Current Version | Previous Version | Text Only | Print | Product List | Glossary On
Versions: 1 2 3 4 5 6 7 8 9 10 11 12 13 14 15
000
FTUS42 KFFC 301120
TAFRYY
TAF
KRYY 301120Z 3012/3112 10007KT P6SM -SHRA SCT015 BKN035 OVC080
      TEMPO 3012/3016 3SM SHRA BKN010
     FM301800 11008KT P6SM VCSH BKN035
      TEMPO 3018/3022 5SM TSRA BKN025CB
     FM310100 11005KT P6SM SCT030 BKN100
     FM310600 11003KT 3SM BR BKN006 OVC030=

USA.gov is the U.S. government's official web portal to all federal, state and local government web resources and services.